createdAt,value
2019-02-05T00:00:55.847Z,2.90
2019-02-05T00:01:43.234Z,3.17
2019-02-05T00:02:29.476Z,2.85
2019-02-05T00:03:18.774Z,2.95
2019-02-05T00:04:08.711Z,2.95
2019-02-05T00:04:54.736Z,2.98
2019-02-05T00:05:40.801Z,2.77
2019-02-05T00:06:27.077Z,3.65
2019-02-05T00:07:13.140Z,3.10
2019-02-05T00:08:01.704Z,3.10
2019-02-05T00:08:47.819Z,3.42
2019-02-05T00:09:34.071Z,3.95
2019-02-05T00:10:20.820Z,4.10
2019-02-05T00:11:06.978Z,4.00
2019-02-05T00:11:53.086Z,4.65
2019-02-05T00:12:39.730Z,3.95
2019-02-05T00:13:26.175Z,4.65
2019-02-05T00:14:12.335Z,4.50
2019-02-05T00:14:58.978Z,4.78
2019-02-05T00:15:45.761Z,5.05
2019-02-05T00:16:31.967Z,5.10
2019-02-05T00:17:19.412Z,4.60
2019-02-05T00:18:06.000Z,5.08
2019-02-05T00:18:52.002Z,4.90
2019-02-05T00:19:38.243Z,4.90
2019-02-05T00:20:24.520Z,4.60
2019-02-05T00:21:11.339Z,4.92
2019-02-05T00:21:57.621Z,5.17
2019-02-05T00:22:43.986Z,5.40
2019-02-05T00:23:30.400Z,5.05
2019-02-05T00:24:16.579Z,5.20
2019-02-05T00:25:02.770Z,5.17
2019-02-05T00:25:48.831Z,5.30
2019-02-05T00:26:35.067Z,5.05
2019-02-05T00:27:21.063Z,5.10
2019-02-05T00:28:07.115Z,4.92
2019-02-05T00:28:53.271Z,4.87
2019-02-05T00:29:39.432Z,5.12
2019-02-05T00:30:26.946Z,5.10
2019-02-05T00:31:12.956Z,5.30
2019-02-05T00:31:59.310Z,5.20
2019-02-05T00:32:45.895Z,4.92
2019-02-05T00:33:32.387Z,5.22
2019-02-05T00:34:18.615Z,5.00
2019-02-05T00:35:05.458Z,5.35
2019-02-05T00:35:51.370Z,4.87
2019-02-05T00:36:37.547Z,4.90
2019-02-05T00:37:23.709Z,4.97
2019-02-05T00:38:10.224Z,5.10
2019-02-05T00:38:58.805Z,5.15
2019-02-05T00:39:46.559Z,4.28
2019-02-05T00:40:34.700Z,5.37
2019-02-05T00:41:24.150Z,5.37
2019-02-05T00:42:12.742Z,5.15
2019-02-05T00:42:59.741Z,5.50
2019-02-05T00:43:49.465Z,5.42
2019-02-05T00:44:45.407Z,5.05
2019-02-05T00:45:39.289Z,5.20
2019-02-05T00:46:29.148Z,5.03
2019-02-05T00:47:26.356Z,4.85
2019-02-05T00:48:12.930Z,5.15
2019-02-05T00:49:00.469Z,5.10
2019-02-05T00:49:46.645Z,5.20
2019-02-05T00:50:32.817Z,4.90
2019-02-05T00:51:20.546Z,5.10
2019-02-05T00:52:10.580Z,4.65
2019-02-05T00:52:56.955Z,4.90
2019-02-05T00:53:43.031Z,5.12
2019-02-05T00:54:29.327Z,4.80
2019-02-05T00:55:16.812Z,5.28
2019-02-05T00:56:03.261Z,4.87
2019-02-05T00:56:49.169Z,5.22
2019-02-05T00:57:35.327Z,5.12
2019-02-05T00:58:21.677Z,4.95
2019-02-05T00:59:07.679Z,4.92
2019-02-05T00:59:54.023Z,5.15
2019-02-05T01:00:45.468Z,4.70
2019-02-05T01:01:31.649Z,5.03
2019-02-05T01:02:17.651Z,5.28
2019-02-05T01:03:04.419Z,4.72
2019-02-05T01:03:50.650Z,5.12
2019-02-05T01:04:38.879Z,5.20
2019-02-05T01:05:25.451Z,5.62
2019-02-05T01:06:11.420Z,4.70
2019-02-05T01:06:57.463Z,5.12
2019-02-05T01:07:44.203Z,5.53
2019-02-05T01:08:30.245Z,5.58
2019-02-05T01:09:16.350Z,5.50
2019-02-05T01:10:04.445Z,5.67
2019-02-05T01:10:50.650Z,5.42
2019-02-05T01:11:36.875Z,5.55
2019-02-05T01:12:23.836Z,6.37
2019-02-05T01:13:10.328Z,5.58
2019-02-05T01:13:56.215Z,5.80
2019-02-05T01:14:42.283Z,6.35
2019-02-05T01:15:28.220Z,6.22
2019-02-05T01:16:14.590Z,5.62
2019-02-05T01:17:00.845Z,7.12
2019-02-05T01:17:46.883Z,7.03
2019-02-05T01:18:33.001Z,6.67
2019-02-05T01:19:19.195Z,6.10
2019-02-05T01:20:06.393Z,5.65
2019-02-05T01:20:52.271Z,6.08
2019-02-05T01:21:38.027Z,6.35
2019-02-05T01:22:23.721Z,6.08
2019-02-05T01:23:09.803Z,5.92
2019-02-05T01:23:56.315Z,6.20
2019-02-05T01:24:42.399Z,6.33
2019-02-05T01:25:28.652Z,5.70
2019-02-05T01:26:15.002Z,5.80
2019-02-05T01:27:01.347Z,6.45
2019-02-05T01:27:47.613Z,6.20
2019-02-05T01:28:33.589Z,5.62
2019-02-05T01:29:19.586Z,6.22
2019-02-05T01:30:06.284Z,5.97
2019-02-05T01:30:52.400Z,6.53
2019-02-05T01:31:38.402Z,6.78
2019-02-05T01:32:24.604Z,5.65
2019-02-05T01:33:10.766Z,5.85
2019-02-05T01:33:56.933Z,5.87
2019-02-05T01:34:42.720Z,5.92
2019-02-05T01:35:28.838Z,6.03
2019-02-05T01:36:14.536Z,6.62
2019-02-05T01:37:00.932Z,5.97
2019-02-05T01:37:47.762Z,7.08
2019-02-05T01:38:34.029Z,6.62
2019-02-05T01:39:20.218Z,6.62
2019-02-05T01:40:08.062Z,7.00
2019-02-05T01:40:54.450Z,6.75
2019-02-05T01:41:40.456Z,7.12
2019-02-05T01:42:26.720Z,6.70
2019-02-05T01:43:12.893Z,6.42
2019-02-05T01:43:59.211Z,6.55
2019-02-05T01:44:45.559Z,6.55
2019-02-05T01:45:31.557Z,6.33
2019-02-05T01:46:17.788Z,6.72
2019-02-05T01:47:04.028Z,6.45
2019-02-05T01:47:49.978Z,6.42
2019-02-05T01:48:36.288Z,5.92
2019-02-05T01:49:22.255Z,6.28
2019-02-05T01:50:09.419Z,6.12
2019-02-05T01:50:55.574Z,6.42
2019-02-05T01:51:41.731Z,6.87
2019-02-05T01:52:28.375Z,6.45
2019-02-05T01:53:14.249Z,6.05
2019-02-05T01:54:00.487Z,6.00
2019-02-05T01:54:46.596Z,6.75
2019-02-05T01:55:32.896Z,5.62
2019-02-05T01:56:18.999Z,6.35
2019-02-05T01:57:05.129Z,6.12
2019-02-05T01:57:50.868Z,6.20
2019-02-05T01:58:36.559Z,5.87
2019-02-05T01:59:22.826Z,5.33
2019-02-05T02:00:12.327Z,5.70
2019-02-05T02:00:58.307Z,5.67
2019-02-05T02:01:44.062Z,5.85
2019-02-05T02:02:30.008Z,4.87
2019-02-05T02:03:16.221Z,5.03
2019-02-05T02:04:02.555Z,5.62
2019-02-05T02:04:48.954Z,5.42
2019-02-05T02:05:35.032Z,5.87
2019-02-05T02:06:20.723Z,5.55
2019-02-05T02:07:06.431Z,5.40
2019-02-05T02:07:52.666Z,5.87
2019-02-05T02:08:38.625Z,6.20
2019-02-05T02:09:24.442Z,6.28
2019-02-05T02:10:13.329Z,6.50
2019-02-05T02:10:59.458Z,6.37
2019-02-05T02:11:45.129Z,6.30
2019-02-05T02:12:30.786Z,7.42
2019-02-05T02:13:17.026Z,8.15
2019-02-05T02:14:03.193Z,8.30
2019-02-05T02:14:49.158Z,9.40
2019-02-05T02:15:34.825Z,9.43
2019-02-05T02:16:21.086Z,9.05
2019-02-05T02:17:07.211Z,9.55
2019-02-05T02:17:52.998Z,10.38
2019-02-05T02:18:39.172Z,8.75
2019-02-05T02:19:25.601Z,9.18
2019-02-05T02:20:13.757Z,9.23
2019-02-05T02:20:59.517Z,9.50
2019-02-05T02:21:45.231Z,8.98
2019-02-05T02:22:30.991Z,8.95
2019-02-05T02:23:17.285Z,9.75
2019-02-05T02:24:02.995Z,8.65
2019-02-05T02:24:49.206Z,8.15
2019-02-05T02:25:35.367Z,8.15
2019-02-05T02:26:21.571Z,6.97
2019-02-05T02:27:07.776Z,7.25
2019-02-05T02:27:53.706Z,6.95
2019-02-05T02:28:39.378Z,6.83
2019-02-05T02:29:25.050Z,6.35
2019-02-05T02:30:15.067Z,6.75
2019-02-05T02:31:00.815Z,6.75
2019-02-05T02:31:46.650Z,6.62
2019-02-05T02:32:32.616Z,6.25
2019-02-05T02:33:18.802Z,6.05
2019-02-05T02:34:04.955Z,6.25
2019-02-05T02:34:50.622Z,5.67
2019-02-05T02:35:36.887Z,5.92
2019-02-05T02:36:23.104Z,6.03
2019-02-05T02:37:08.868Z,6.10
2019-02-05T02:37:55.158Z,6.60
2019-02-05T02:38:40.949Z,6.17
2019-02-05T02:39:26.740Z,5.62
2019-02-05T02:40:12.686Z,5.37
2019-02-05T02:40:58.531Z,5.12
2019-02-05T02:41:44.676Z,5.53
2019-02-05T02:42:30.912Z,5.10
2019-02-05T02:43:17.046Z,6.22
2019-02-05T02:44:03.505Z,5.80
2019-02-05T02:44:49.340Z,5.78
2019-02-05T02:45:35.471Z,5.22
2019-02-05T02:46:21.655Z,5.20
2019-02-05T02:47:07.840Z,5.92
2019-02-05T02:47:54.155Z,5.15
2019-02-05T02:48:40.387Z,5.55
2019-02-05T02:49:26.530Z,5.72
2019-02-05T02:50:13.358Z,5.78
2019-02-05T02:50:59.511Z,5.42
2019-02-05T02:51:45.735Z,5.87
2019-02-05T02:52:31.976Z,5.53
2019-02-05T02:53:18.112Z,5.83
2019-02-05T02:54:04.267Z,5.92
2019-02-05T02:54:50.331Z,5.50
2019-02-05T02:55:36.674Z,5.58
2019-02-05T02:56:23.888Z,5.28
2019-02-05T02:57:10.097Z,5.47
2019-02-05T02:57:56.421Z,5.72
2019-02-05T02:58:42.753Z,5.62
2019-02-05T02:59:29.006Z,5.47
2019-02-05T03:00:16.930Z,5.22
2019-02-05T03:01:03.299Z,5.60
2019-02-05T03:01:49.315Z,5.30
2019-02-05T03:02:35.613Z,5.05
2019-02-05T03:03:21.943Z,5.65
2019-02-05T03:04:07.832Z,4.95
2019-02-05T03:04:54.155Z,4.47
2019-02-05T03:05:40.311Z,5.22
2019-02-05T03:06:25.999Z,5.55
2019-02-05T03:07:12.172Z,5.03
2019-02-05T03:07:58.244Z,5.30
2019-02-05T03:08:44.432Z,5.05
2019-02-05T03:09:30.600Z,5.30
2019-02-05T03:10:21.775Z,5.45
2019-02-05T03:11:07.973Z,5.45
2019-02-05T03:11:54.134Z,5.87
2019-02-05T03:12:40.332Z,5.00
2019-02-05T03:13:26.561Z,5.28
2019-02-05T03:14:12.801Z,5.53
2019-02-05T03:14:58.982Z,5.08
2019-02-05T03:15:45.116Z,5.05
2019-02-05T03:16:31.337Z,5.40
2019-02-05T03:17:17.491Z,4.87
2019-02-05T03:18:03.684Z,4.80
2019-02-05T03:18:49.933Z,5.22
2019-02-05T03:19:36.152Z,5.47
2019-02-05T03:20:22.429Z,5.22
2019-02-05T03:21:08.812Z,5.12
2019-02-05T03:21:55.199Z,5.03
2019-02-05T03:22:41.502Z,4.83
2019-02-05T03:23:29.150Z,4.40
2019-02-05T03:24:15.416Z,4.80
2019-02-05T03:25:01.727Z,4.95
2019-02-05T03:25:48.352Z,4.87
2019-02-05T03:26:34.805Z,5.15
2019-02-05T03:27:20.575Z,5.10
2019-02-05T03:28:06.810Z,5.15
2019-02-05T03:28:52.961Z,5.45
2019-02-05T03:29:39.099Z,5.37
2019-02-05T03:30:25.669Z,5.60
2019-02-05T03:31:11.981Z,5.45
2019-02-05T03:31:58.101Z,5.70
2019-02-05T03:32:44.306Z,5.15
2019-02-05T03:33:30.468Z,6.50
2019-02-05T03:34:16.638Z,5.53
2019-02-05T03:35:03.443Z,5.87
2019-02-05T03:35:49.324Z,5.97
2019-02-05T03:36:35.519Z,6.25
2019-02-05T03:37:21.597Z,5.97
2019-02-05T03:38:07.786Z,5.95
2019-02-05T03:38:53.433Z,6.08
2019-02-05T03:39:39.290Z,5.95
2019-02-05T03:41:07.675Z,6.37
2019-02-05T03:41:53.519Z,5.78
2019-02-05T03:42:39.229Z,5.70
2019-02-05T03:43:25.459Z,6.33
2019-02-05T03:44:11.158Z,5.45
2019-02-05T03:44:57.416Z,5.92
2019-02-05T03:45:43.784Z,5.95
2019-02-05T03:46:30.041Z,6.20
2019-02-05T03:47:15.891Z,6.33
2019-02-05T03:48:02.712Z,6.53
2019-02-05T03:48:49.278Z,6.70
2019-02-05T03:49:35.378Z,6.08
2019-02-05T03:50:21.768Z,6.25
2019-02-05T03:51:39.954Z,6.20
2019-02-05T03:52:34.719Z,5.62
2019-02-05T03:53:23.637Z,5.97
2019-02-05T03:54:33.859Z,5.75
2019-02-05T03:55:50.736Z,6.12
2019-02-05T03:57:11.295Z,6.20
2019-02-05T03:58:28.768Z,6.42
2019-02-05T03:59:30.003Z,5.60
2019-02-05T04:00:58.976Z,6.03
2019-02-05T04:02:29.940Z,5.85
2019-02-05T04:04:01.261Z,6.20
2019-02-05T04:05:20.243Z,5.83
2019-02-05T04:06:29.028Z,6.33
2019-02-05T04:07:51.976Z,6.35
2019-02-05T04:09:28.459Z,6.30
2019-02-05T04:10:38.693Z,6.50
2019-02-05T04:12:05.200Z,6.62
2019-02-05T04:14:00.086Z,6.70
2019-02-05T04:15:22.600Z,6.25
2019-02-05T04:16:48.933Z,6.95
2019-02-05T04:18:03.117Z,6.90
2019-02-05T04:19:17.264Z,7.05
2019-02-05T04:20:40.710Z,7.87
2019-02-05T04:22:23.382Z,6.80
2019-02-05T04:23:45.693Z,7.35
2019-02-05T04:25:12.194Z,6.90
2019-02-05T04:26:45.879Z,7.03
2019-02-05T04:27:52.304Z,6.70
2019-02-05T04:29:26.603Z,6.62
2019-02-05T04:30:48.849Z,7.12
2019-02-05T04:32:17.251Z,6.70
2019-02-05T04:33:40.590Z,6.62
2019-02-05T04:34:52.998Z,6.42
2019-02-05T04:36:14.603Z,6.55
2019-02-05T04:37:25.621Z,6.35
2019-02-05T04:38:35.947Z,6.67
2019-02-05T04:39:59.006Z,6.25
2019-02-05T04:41:36.002Z,6.50
2019-02-05T04:43:01.069Z,6.10
2019-02-05T04:44:08.661Z,6.60
2019-02-05T04:45:39.633Z,6.37
2019-02-05T04:46:54.964Z,6.75
2019-02-05T04:48:43.698Z,6.87
2019-02-05T04:50:05.403Z,6.53
2019-02-05T04:51:34.458Z,6.72
2019-02-05T04:52:45.998Z,7.33
2019-02-05T04:54:06.899Z,6.90
2019-02-05T04:55:25.495Z,6.90
2019-02-05T04:56:46.819Z,7.25
2019-02-05T04:58:21.089Z,6.83
2019-02-05T04:59:58.050Z,6.25
2019-02-05T05:01:21.316Z,7.08
2019-02-05T05:02:40.932Z,6.75
2019-02-05T05:03:44.222Z,6.65
2019-02-05T05:05:08.088Z,7.00
2019-02-05T05:06:20.859Z,6.83
2019-02-05T05:07:30.523Z,7.15
2019-02-05T05:08:45.511Z,6.60
2019-02-05T05:09:51.178Z,6.90
2019-02-05T05:10:37.404Z,7.53
2019-02-05T05:11:23.524Z,8.10
2019-02-05T05:12:09.704Z,7.08
2019-02-05T05:12:55.939Z,6.92
2019-02-05T05:13:41.531Z,7.20
2019-02-05T05:14:27.737Z,7.50
2019-02-05T05:15:14.053Z,7.67
2019-02-05T05:16:00.505Z,7.25
2019-02-05T05:16:46.567Z,8.10
2019-02-05T05:17:32.709Z,7.42
2019-02-05T05:18:19.030Z,7.60
2019-02-05T05:19:05.527Z,7.45
2019-02-05T05:19:51.970Z,7.65
2019-02-05T05:20:38.405Z,7.47
2019-02-05T05:21:24.919Z,6.80
2019-02-05T05:22:11.264Z,7.55
2019-02-05T05:22:58.684Z,7.20
2019-02-05T05:23:45.187Z,7.12
2019-02-05T05:24:31.537Z,7.33
2019-02-05T05:25:19.121Z,7.12
2019-02-05T05:26:05.180Z,7.67
2019-02-05T05:26:51.383Z,7.60
2019-02-05T05:27:37.799Z,7.87
2019-02-05T05:28:23.928Z,7.78
2019-02-05T05:29:10.424Z,7.87
2019-02-05T05:29:56.526Z,7.70
2019-02-05T05:30:42.905Z,11.53
2019-02-05T05:31:29.338Z,10.30
2019-02-05T05:32:16.426Z,13.28
2019-02-05T05:33:02.251Z,19.35
2019-02-05T05:33:48.322Z,8.28
2019-02-05T05:34:34.511Z,9.15
2019-02-05T05:35:20.192Z,7.65
2019-02-05T05:36:06.665Z,8.00
2019-02-05T05:36:51.715Z,8.00
2019-02-05T05:37:37.671Z,7.95
2019-02-05T05:38:23.954Z,7.92
2019-02-05T05:39:10.187Z,7.67
2019-02-05T05:39:55.991Z,8.15
2019-02-05T05:40:43.838Z,7.58
2019-02-05T05:41:30.200Z,7.25
2019-02-05T05:42:16.456Z,8.03
2019-02-05T05:43:02.637Z,6.67
2019-02-05T05:43:48.496Z,7.12
2019-02-05T05:44:34.693Z,7.58
2019-02-05T05:45:21.057Z,7.60
2019-02-05T05:46:07.191Z,7.55
2019-02-05T05:46:53.313Z,7.55
2019-02-05T05:47:39.354Z,7.62
2019-02-05T05:48:25.578Z,7.47
2019-02-05T05:49:11.777Z,7.60
2019-02-05T05:49:57.931Z,8.85
2019-02-05T05:50:44.140Z,8.90
2019-02-05T05:51:30.437Z,9.10
2019-02-05T05:52:16.693Z,8.70
2019-02-05T05:53:02.960Z,8.50
2019-02-05T05:53:48.946Z,9.33
2019-02-05T05:54:35.139Z,8.95
2019-02-05T05:55:21.265Z,9.35
2019-02-05T05:56:07.443Z,9.53
2019-02-05T05:56:53.658Z,9.13
2019-02-05T05:57:39.455Z,9.60
2019-02-05T05:58:25.758Z,9.13
2019-02-05T05:59:12.033Z,8.85
2019-02-05T05:59:58.242Z,11.25
2019-02-05T06:00:44.451Z,10.78
2019-02-05T06:01:30.737Z,9.80
2019-02-05T06:02:18.798Z,10.30
2019-02-05T06:03:04.816Z,10.53
2019-02-05T06:03:51.138Z,11.00
2019-02-05T06:04:36.918Z,10.80
2019-02-05T06:05:23.069Z,10.72
2019-02-05T06:06:09.310Z,11.00
2019-02-05T06:06:55.372Z,10.58
2019-02-05T06:07:41.520Z,12.00
2019-02-05T06:08:27.781Z,10.95
2019-02-05T06:09:13.923Z,11.25
2019-02-05T06:09:59.585Z,11.22
2019-02-05T06:10:45.869Z,11.55
2019-02-05T06:11:31.833Z,11.80
2019-02-05T06:12:18.466Z,12.30
2019-02-05T06:13:04.828Z,11.48
2019-02-05T06:13:50.526Z,12.55
2019-02-05T06:14:36.282Z,11.80
2019-02-05T06:15:22.446Z,11.78
2019-02-05T06:16:08.229Z,11.60
2019-02-05T06:16:54.500Z,11.12
2019-02-05T06:17:40.797Z,11.45
2019-02-05T06:18:27.096Z,11.40
2019-02-05T06:19:13.266Z,11.12
2019-02-05T06:19:59.997Z,10.53
2019-02-05T06:20:46.268Z,10.80
2019-02-05T06:21:32.529Z,9.68
2019-02-05T06:22:18.691Z,9.65
2019-02-05T06:23:04.831Z,9.60
2019-02-05T06:23:51.350Z,9.35
2019-02-05T06:24:37.577Z,10.30
2019-02-05T06:25:23.743Z,9.88
2019-02-05T06:26:09.407Z,10.23
2019-02-05T06:26:55.634Z,9.95
2019-02-05T06:27:41.819Z,9.90
2019-02-05T06:28:34.658Z,9.70
2019-02-05T06:29:16.045Z,9.60
2019-02-05T06:30:02.571Z,10.82
2019-02-05T06:30:48.849Z,10.63
2019-02-05T06:31:35.103Z,10.28
2019-02-05T06:32:21.236Z,10.95
2019-02-05T06:33:10.386Z,11.00
2019-02-05T06:33:56.629Z,12.25
2019-02-05T06:34:42.863Z,13.25
2019-02-05T06:35:29.000Z,13.65
2019-02-05T06:36:15.156Z,13.22
2019-02-05T06:37:01.307Z,13.88
2019-02-05T06:37:47.579Z,14.93
2019-02-05T06:38:33.307Z,15.40
2019-02-05T06:39:19.026Z,14.78
2019-02-05T06:40:06.480Z,15.32
2019-02-05T06:40:52.510Z,15.65
2019-02-05T06:41:38.810Z,15.50
2019-02-05T06:42:25.134Z,15.83
2019-02-05T06:43:11.280Z,16.32
2019-02-05T06:43:57.564Z,17.05
2019-02-05T06:44:43.811Z,17.75
2019-02-05T06:45:29.962Z,17.50
2019-02-05T06:46:16.121Z,16.70
2019-02-05T06:47:02.155Z,17.07
2019-02-05T06:47:48.298Z,17.92
2019-02-05T06:48:34.045Z,17.45
2019-02-05T06:49:19.740Z,18.20
2019-02-05T06:50:06.783Z,17.62
2019-02-05T06:50:52.996Z,17.25
2019-02-05T06:51:39.233Z,16.87
2019-02-05T06:52:25.333Z,17.27
2019-02-05T06:53:11.464Z,18.20
2019-02-05T06:53:57.160Z,17.82
2019-02-05T06:54:43.334Z,18.12
2019-02-05T06:55:29.555Z,18.10
2019-02-05T06:56:15.710Z,18.60
2019-02-05T06:57:01.885Z,18.70
2019-02-05T06:57:47.679Z,17.45
2019-02-05T06:58:45.600Z,17.35
2019-02-05T06:59:21.751Z,17.30
2019-02-05T07:00:15.000Z,17.90
2019-02-05T07:01:00.822Z,16.75
2019-02-05T07:01:46.515Z,16.95
2019-02-05T07:02:32.654Z,16.50
2019-02-05T07:03:18.356Z,16.00
2019-02-05T07:04:05.027Z,17.30
2019-02-05T07:04:51.313Z,16.65
2019-02-05T07:05:37.682Z,17.17
2019-02-05T07:06:23.815Z,17.85
2019-02-05T07:07:09.998Z,17.95
2019-02-05T07:07:56.360Z,18.55
2019-02-05T07:08:42.728Z,18.70
2019-02-05T07:09:28.918Z,19.90
2019-02-05T07:10:16.751Z,18.62
2019-02-05T07:11:03.108Z,18.85
2019-02-05T07:11:49.096Z,19.87
2019-02-05T07:12:35.286Z,18.62
2019-02-05T07:13:21.461Z,18.48
2019-02-05T07:14:07.764Z,18.57
2019-02-05T07:14:53.976Z,16.77
2019-02-05T07:15:39.777Z,16.00
2019-02-05T07:16:25.960Z,16.10
2019-02-05T07:17:11.678Z,16.35
2019-02-05T07:17:57.362Z,15.78
2019-02-05T07:18:43.500Z,13.45
2019-02-05T07:19:29.647Z,14.75
2019-02-05T07:20:16.035Z,15.63
2019-02-05T07:21:02.056Z,17.05
2019-02-05T07:21:48.363Z,18.92
2019-02-05T07:22:34.422Z,18.62
2019-02-05T07:23:20.687Z,18.20
2019-02-05T07:24:06.967Z,17.45
2019-02-05T07:24:53.171Z,18.02
2019-02-05T07:25:39.418Z,18.17
2019-02-05T07:26:25.722Z,18.95
2019-02-05T07:27:11.993Z,18.40
2019-02-05T07:27:58.227Z,20.35
2019-02-05T07:28:44.460Z,19.00
2019-02-05T07:29:30.679Z,20.70
2019-02-05T07:30:19.049Z,20.60
2019-02-05T07:31:05.397Z,21.77
2019-02-05T07:31:51.689Z,22.42
2019-02-05T07:32:37.977Z,20.25
2019-02-05T07:33:24.056Z,20.97
2019-02-05T07:34:10.177Z,21.05
2019-02-05T07:34:56.304Z,21.70
2019-02-05T07:35:42.356Z,20.40
2019-02-05T07:36:28.485Z,21.12
2019-02-05T07:37:14.643Z,20.57
2019-02-05T07:38:00.816Z,19.57
2019-02-05T07:38:46.875Z,21.27
2019-02-05T07:39:33.082Z,21.33
2019-02-05T07:40:20.044Z,21.50
2019-02-05T07:41:06.011Z,22.37
2019-02-05T07:41:52.105Z,21.75
2019-02-05T07:42:38.237Z,21.17
2019-02-05T07:43:24.490Z,19.57
2019-02-05T07:44:10.687Z,17.90
2019-02-05T07:44:56.932Z,18.05
2019-02-05T07:45:43.195Z,19.25
2019-02-05T07:46:29.444Z,18.00
2019-02-05T07:47:15.693Z,18.20
2019-02-05T07:48:01.896Z,16.45
2019-02-05T07:48:48.139Z,16.50
2019-02-05T07:49:34.315Z,15.32
2019-02-05T07:50:22.104Z,14.87
2019-02-05T07:51:08.247Z,14.23
2019-02-05T07:51:54.647Z,14.63
2019-02-05T07:52:40.659Z,14.83
2019-02-05T07:53:26.617Z,15.65
2019-02-05T07:54:12.719Z,15.15
2019-02-05T07:54:58.789Z,15.18
2019-02-05T07:55:44.923Z,14.35
2019-02-05T07:56:31.051Z,15.70
2019-02-05T07:57:16.703Z,15.00
2019-02-05T07:58:02.991Z,14.58
2019-02-05T07:58:48.757Z,15.00
2019-02-05T07:59:34.902Z,14.98
2019-02-05T08:00:22.636Z,15.05
2019-02-05T08:01:08.826Z,15.83
2019-02-05T08:01:54.934Z,15.13
2019-02-05T08:02:41.080Z,15.68
2019-02-05T08:03:27.351Z,14.98
2019-02-05T08:04:13.740Z,16.32
2019-02-05T08:05:00.797Z,16.17
2019-02-05T08:05:47.174Z,15.23
2019-02-05T08:06:33.290Z,15.90
2019-02-05T08:07:19.134Z,15.58
2019-02-05T08:08:05.973Z,15.38
2019-02-05T08:08:52.524Z,15.88
2019-02-05T08:09:38.968Z,16.23
2019-02-05T08:10:25.324Z,15.78
2019-02-05T08:11:11.993Z,16.40
2019-02-05T08:11:58.069Z,15.72
2019-02-05T08:12:43.791Z,16.55
2019-02-05T08:13:29.948Z,16.02
2019-02-05T08:14:16.119Z,15.20
2019-02-05T08:15:02.121Z,15.38
2019-02-05T08:15:48.219Z,14.93
2019-02-05T08:16:34.332Z,13.50
2019-02-05T08:17:20.561Z,14.95
2019-02-05T08:18:06.903Z,14.98
2019-02-05T08:18:55.841Z,15.83
2019-02-05T08:19:41.912Z,14.55
2019-02-05T08:20:30.966Z,13.85
2019-02-05T08:21:17.067Z,14.03
2019-02-05T08:22:03.448Z,14.55
2019-02-05T08:22:49.822Z,14.63
2019-02-05T08:23:36.031Z,13.95
2019-02-05T08:24:22.176Z,14.35
2019-02-05T08:25:09.835Z,13.70
2019-02-05T08:25:55.917Z,13.75
2019-02-05T08:26:42.016Z,13.60
2019-02-05T08:27:28.139Z,14.98
2019-02-05T08:28:14.362Z,13.85
2019-02-05T08:29:00.333Z,13.35
2019-02-05T08:29:46.841Z,13.45
2019-02-05T08:30:35.539Z,13.78
2019-02-05T08:31:21.538Z,13.53
2019-02-05T08:32:07.765Z,12.58
2019-02-05T08:32:53.858Z,12.82
2019-02-05T08:33:40.079Z,13.15
2019-02-05T08:34:26.320Z,12.07
2019-02-05T08:35:13.012Z,13.80
2019-02-05T08:35:59.143Z,13.53
2019-02-05T08:36:45.340Z,14.28
2019-02-05T08:37:31.187Z,13.80
2019-02-05T08:38:17.389Z,14.38
2019-02-05T08:39:07.021Z,13.48
2019-02-05T08:39:52.879Z,12.82
2019-02-05T08:40:42.303Z,14.78
2019-02-05T08:41:28.542Z,12.95
2019-02-05T08:42:14.736Z,14.70
2019-02-05T08:43:01.104Z,14.60
2019-02-05T08:43:47.093Z,13.72
2019-02-05T08:44:32.913Z,14.95
2019-02-05T08:45:21.015Z,15.23
2019-02-05T08:46:07.303Z,15.63
2019-02-05T08:46:53.363Z,15.55
2019-02-05T08:47:39.631Z,15.10
2019-02-05T08:48:26.102Z,14.87
2019-02-05T08:49:12.125Z,15.38
2019-02-05T08:49:58.328Z,15.15
2019-02-05T08:50:44.426Z,15.13
2019-02-05T08:51:30.583Z,15.38
2019-02-05T08:52:16.650Z,15.30
2019-02-05T08:53:03.004Z,16.17
2019-02-05T08:53:48.888Z,15.55
2019-02-05T08:54:35.038Z,14.20
2019-02-05T08:55:21.387Z,14.98
2019-02-05T08:56:07.247Z,14.50
2019-02-05T08:56:53.359Z,14.98
2019-02-05T08:57:39.539Z,15.00
2019-02-05T08:58:31.219Z,14.78
2019-02-05T08:59:13.775Z,14.68
2019-02-05T09:00:00.051Z,14.03
2019-02-05T09:00:46.331Z,15.98
2019-02-05T09:01:32.426Z,15.18
2019-02-05T09:02:18.518Z,15.88
2019-02-05T09:03:07.121Z,14.85
2019-02-05T09:03:52.952Z,15.50
2019-02-05T09:04:39.188Z,15.58
2019-02-05T09:05:25.420Z,15.80
2019-02-05T09:06:11.563Z,16.90
2019-02-05T09:06:57.828Z,16.32
2019-02-05T09:07:44.016Z,15.70
2019-02-05T09:08:30.317Z,16.70
2019-02-05T09:09:16.625Z,16.52
2019-02-05T09:10:04.492Z,16.93
2019-02-05T09:10:50.664Z,17.50
2019-02-05T09:11:36.880Z,16.55
2019-02-05T09:12:23.215Z,16.23
2019-02-05T09:13:09.332Z,16.30
2019-02-05T09:13:55.526Z,16.45
2019-02-05T09:14:41.748Z,15.58
2019-02-05T09:15:29.447Z,17.40
2019-02-05T09:16:16.161Z,17.17
2019-02-05T09:17:02.259Z,16.23
2019-02-05T09:17:48.442Z,17.02
2019-02-05T09:18:34.591Z,17.32
2019-02-05T09:19:20.736Z,16.50
2019-02-05T09:20:09.332Z,16.37
2019-02-05T09:20:55.518Z,16.90
2019-02-05T09:21:41.620Z,16.93
2019-02-05T09:22:27.954Z,16.60
2019-02-05T09:23:14.477Z,17.67
2019-02-05T09:24:00.588Z,15.78
2019-02-05T09:24:46.589Z,17.40
2019-02-05T09:25:42.954Z,16.80
2019-02-05T09:26:30.930Z,16.52
2019-02-05T09:27:16.575Z,18.00
2019-02-05T09:28:13.187Z,18.10
2019-02-05T09:28:59.136Z,17.73
2019-02-05T09:29:45.287Z,17.60
2019-02-05T09:30:33.685Z,17.85
2019-02-05T09:31:19.698Z,18.07
2019-02-05T09:32:08.651Z,18.27
2019-02-05T09:32:55.866Z,17.80
2019-02-05T09:33:41.629Z,18.77
2019-02-05T09:34:27.764Z,18.73
2019-02-05T09:35:13.992Z,18.12
2019-02-05T09:36:00.291Z,17.70
2019-02-05T09:36:46.398Z,17.87
2019-02-05T09:37:32.484Z,18.25
2019-02-05T09:38:18.680Z,19.15
2019-02-05T09:39:06.655Z,19.27
2019-02-05T09:39:52.510Z,19.00
2019-02-05T09:40:38.774Z,19.75
2019-02-05T09:41:25.281Z,19.35
2019-02-05T09:42:11.437Z,18.32
2019-02-05T09:42:58.084Z,19.40
2019-02-05T09:43:44.126Z,18.77
2019-02-05T09:44:38.382Z,18.45
2019-02-05T09:45:26.563Z,17.62
2019-02-05T09:46:12.759Z,16.57
2019-02-05T09:46:59.705Z,15.80
2019-02-05T09:47:45.575Z,15.72
2019-02-05T09:48:31.731Z,13.53
2019-02-05T09:49:18.084Z,13.05
2019-02-05T09:50:04.571Z,12.98
2019-02-05T09:50:50.750Z,12.95
2019-02-05T09:51:37.244Z,12.20
2019-02-05T09:52:23.510Z,13.80
2019-02-05T09:53:09.917Z,12.95
2019-02-05T09:53:55.940Z,12.90
2019-02-05T09:54:42.100Z,12.25
2019-02-05T09:55:28.262Z,13.78
2019-02-05T09:56:14.407Z,12.47
2019-02-05T09:57:00.569Z,12.85
2019-02-05T09:57:46.915Z,12.82
2019-02-05T09:58:33.691Z,13.95
2019-02-05T09:59:21.798Z,12.40
2019-02-05T10:00:20.716Z,13.68
2019-02-05T10:01:06.952Z,12.03
2019-02-05T10:01:53.882Z,12.88
2019-02-05T10:02:42.420Z,12.53
2019-02-05T10:03:28.599Z,12.10
2019-02-05T10:04:14.558Z,12.35
2019-02-05T10:05:00.873Z,12.82
2019-02-05T10:05:47.171Z,12.80
2019-02-05T10:06:34.480Z,12.18
2019-02-05T10:07:20.709Z,13.32
2019-02-05T10:08:07.214Z,13.03
2019-02-05T10:08:53.200Z,12.23
2019-02-05T10:09:39.521Z,11.88
2019-02-05T10:10:25.743Z,13.10
2019-02-05T10:11:11.925Z,12.25
2019-02-05T10:11:58.092Z,12.43
2019-02-05T10:12:46.835Z,12.43
2019-02-05T10:13:31.828Z,13.28
2019-02-05T10:14:17.957Z,12.55
2019-02-05T10:15:07.038Z,11.70
2019-02-05T10:15:52.881Z,12.28
2019-02-05T10:16:38.825Z,12.55
2019-02-05T10:17:24.904Z,11.68
2019-02-05T10:18:11.775Z,12.68
2019-02-05T10:18:57.754Z,11.95
2019-02-05T10:19:43.858Z,11.88
2019-02-05T10:20:30.147Z,12.50
2019-02-05T10:21:16.224Z,12.20
2019-02-05T10:22:02.236Z,12.45
2019-02-05T10:22:48.564Z,11.65
2019-02-05T10:23:34.469Z,12.28
2019-02-05T10:24:20.620Z,11.65
2019-02-05T10:25:07.467Z,11.83
2019-02-05T10:25:53.645Z,12.45
2019-02-05T10:26:39.879Z,11.45
2019-02-05T10:27:26.067Z,12.10
2019-02-05T10:28:12.263Z,11.73
2019-02-05T10:28:57.975Z,12.85
2019-02-05T10:29:44.221Z,13.00
2019-02-05T10:30:32.060Z,12.90
2019-02-05T10:31:19.847Z,13.93
2019-02-05T10:32:06.123Z,13.35
2019-02-05T10:32:52.707Z,13.70
2019-02-05T10:33:39.156Z,13.78
2019-02-05T10:34:33.921Z,14.53
2019-02-05T10:35:13.215Z,15.32
2019-02-05T10:36:01.376Z,17.07
2019-02-05T10:36:47.911Z,16.97
2019-02-05T10:37:34.122Z,16.40
2019-02-05T10:38:20.473Z,17.80
2019-02-05T10:39:08.239Z,18.65
2019-02-05T10:39:54.363Z,18.07
2019-02-05T10:40:40.605Z,19.42
2019-02-05T10:41:26.914Z,20.32
2019-02-05T10:42:13.101Z,21.10
2019-02-05T10:42:59.595Z,22.60
2019-02-05T10:43:45.687Z,23.15
2019-02-05T10:44:31.401Z,24.50